createdAt,value
2018-08-07T00:00:24.573Z,52.50
2018-08-07T00:02:01.440Z,50.90
2018-08-07T00:03:37.927Z,50.90
2018-08-07T00:05:15.143Z,49.20
2018-08-07T00:06:52.548Z,51.00
2018-08-07T00:08:29.461Z,53.00
2018-08-07T00:10:07.753Z,52.90
2018-08-07T00:11:44.184Z,52.30
2018-08-07T00:13:20.693Z,53.40
2018-08-07T00:14:58.243Z,52.00
2018-08-07T00:16:35.456Z,52.40
2018-08-07T00:18:11.825Z,53.30
2018-08-07T00:19:48.373Z,53.40
2018-08-07T00:24:31.316Z,53.00
2018-08-07T00:26:07.901Z,53.40
2018-08-07T00:27:45.086Z,53.10
2018-08-07T00:29:21.368Z,52.90
2018-08-07T00:32:35.611Z,53.50
2018-08-07T00:34:12.596Z,52.70
2018-08-07T00:35:49.756Z,53.00
2018-08-07T00:37:26.285Z,52.10
2018-08-07T00:39:02.572Z,51.40
2018-08-07T00:40:40.175Z,51.60
2018-08-07T00:42:17.396Z,52.80
2018-08-07T00:43:53.745Z,54.00
2018-08-07T00:45:31.253Z,54.20
2018-08-07T00:47:08.303Z,54.40
2018-08-07T00:48:44.742Z,54.70
2018-08-07T00:52:01.605Z,54.60
2018-08-07T00:53:38.318Z,55.50
2018-08-07T00:55:16.303Z,55.60
2018-08-07T00:56:52.859Z,55.50
2018-08-07T00:58:29.297Z,55.40
2018-08-07T01:00:11.237Z,55.50
2018-08-07T01:01:51.531Z,56.10
2018-08-07T01:03:29.486Z,55.50
2018-08-07T01:05:07.737Z,55.20
2018-08-07T01:06:44.698Z,55.80
2018-08-07T01:08:21.121Z,55.60
2018-08-07T01:09:57.413Z,56.00
2018-08-07T01:11:34.162Z,56.70
2018-08-07T01:13:10.906Z,57.00
2018-08-07T01:14:47.219Z,56.60
2018-08-07T01:16:23.932Z,56.60
2018-08-07T01:18:00.178Z,57.70
2018-08-07T01:19:37.810Z,58.00
2018-08-07T01:21:16.622Z,57.50
2018-08-07T01:22:55.053Z,57.60
2018-08-07T01:26:09.052Z,57.80
2018-08-07T01:27:45.418Z,57.50
2018-08-07T01:29:22.258Z,58.10
2018-08-07T01:30:58.949Z,58.60
2018-08-07T01:32:35.264Z,57.60
2018-08-07T01:34:11.547Z,58.40
2018-08-07T01:35:47.963Z,57.30
2018-08-07T01:37:24.649Z,57.80
2018-08-07T01:39:01.082Z,58.70
2018-08-07T01:40:37.524Z,58.80
2018-08-07T01:42:14.055Z,59.10
2018-08-07T01:43:51.730Z,58.50
2018-08-07T01:45:28.766Z,58.60
2018-08-07T01:47:05.174Z,59.40
2018-08-07T01:48:41.638Z,59.60
2018-08-07T01:50:19.690Z,59.20
2018-08-07T01:51:56.449Z,59.60
2018-08-07T01:53:32.758Z,60.30
2018-08-07T01:55:11.808Z,59.90
2018-08-07T01:56:48.681Z,59.00
2018-08-07T01:58:25.092Z,57.80
2018-08-07T02:00:02.002Z,57.60
2018-08-07T02:01:39.339Z,57.50
2018-08-07T02:03:16.196Z,57.30
2018-08-07T02:04:52.458Z,58.10
2018-08-07T02:06:29.106Z,57.80
2018-08-07T02:08:06.301Z,58.10
2018-08-07T02:09:43.848Z,59.40
2018-08-07T02:11:20.290Z,59.00
2018-08-07T02:12:56.660Z,59.10
2018-08-07T02:14:41.733Z,59.60
2018-08-07T02:16:20.960Z,59.40
2018-08-07T02:18:02.287Z,60.00
2018-08-07T02:19:40.250Z,60.40
2018-08-07T02:21:16.641Z,60.90
2018-08-07T02:22:53.248Z,61.30
2018-08-07T02:24:30.261Z,61.40
2018-08-07T02:26:06.994Z,60.80
2018-08-07T02:27:43.954Z,61.70
2018-08-07T02:29:21.694Z,62.80
2018-08-07T02:31:00.361Z,62.20
2018-08-07T02:32:37.398Z,62.30
2018-08-07T02:35:50.517Z,65.50
2018-08-07T02:37:27.701Z,66.90
2018-08-07T02:39:04.444Z,69.30
2018-08-07T02:40:46.411Z,70.80
2018-08-07T02:42:24.592Z,71.80
2018-08-07T02:44:02.434Z,72.50
2018-08-07T02:45:39.263Z,73.30
2018-08-07T02:47:15.830Z,73.80
2018-08-07T02:48:52.545Z,72.80
2018-08-07T02:50:30.101Z,72.60
2018-08-07T02:52:06.495Z,72.40
2018-08-07T02:53:42.981Z,73.20
2018-08-07T02:55:19.708Z,72.90
2018-08-07T02:56:56.076Z,73.20
2018-08-07T02:58:32.374Z,73.80
2018-08-07T03:00:16.815Z,74.10
2018-08-07T03:01:55.693Z,74.60
2018-08-07T03:03:31.960Z,76.00
2018-08-07T03:05:09.375Z,77.20
2018-08-07T03:06:46.232Z,78.00
2018-08-07T03:08:25.056Z,79.70
2018-08-07T03:10:02.881Z,80.00
2018-08-07T03:11:39.495Z,80.50
2018-08-07T03:13:17.885Z,80.80
2018-08-07T03:14:55.331Z,81.20
2018-08-07T03:16:32.608Z,82.10
2018-08-07T03:18:08.907Z,83.30
2018-08-07T03:19:45.343Z,85.00
2018-08-07T03:21:22.220Z,86.20
2018-08-07T03:23:00.696Z,87.00
2018-08-07T03:24:37.554Z,87.40
2018-08-07T03:26:13.936Z,87.70
2018-08-07T03:27:50.594Z,88.00
2018-08-07T03:29:26.951Z,88.50
2018-08-07T03:31:03.730Z,89.40
2018-08-07T03:32:40.072Z,89.70
2018-08-07T03:34:16.779Z,89.80
2018-08-07T03:35:53.069Z,90.10
2018-08-07T03:37:29.514Z,90.40
2018-08-07T03:39:09.382Z,90.70
2018-08-07T03:40:46.037Z,90.60
2018-08-07T03:42:22.393Z,90.80
2018-08-07T03:43:58.728Z,91.20
2018-08-07T03:45:35.707Z,91.40
2018-08-07T03:47:12.132Z,91.70
2018-08-07T03:48:48.532Z,92.10
2018-08-07T03:50:26.571Z,92.40
2018-08-07T03:52:03.727Z,92.20
2018-08-07T03:53:40.526Z,92.30
2018-08-07T03:55:18.458Z,92.40
2018-08-07T03:56:54.935Z,92.30
2018-08-07T03:58:31.172Z,92.30
2018-08-07T04:00:18.021Z,91.70
2018-08-07T04:01:54.283Z,91.50
2018-08-07T04:03:30.834Z,91.50
2018-08-07T04:05:08.124Z,91.40
2018-08-07T04:06:44.822Z,91.40
2018-08-07T04:08:21.057Z,91.30
2018-08-07T04:09:57.340Z,91.20
2018-08-07T04:11:35.815Z,90.70
2018-08-07T04:13:12.731Z,90.10
2018-08-07T04:14:49.362Z,90.60
2018-08-07T04:18:01.563Z,91.70
2018-08-07T04:19:38.157Z,91.60
2018-08-07T04:21:14.732Z,91.70
2018-08-07T04:22:51.038Z,91.80
2018-08-07T04:24:27.713Z,91.90
2018-08-07T04:26:04.563Z,92.10
2018-08-07T04:27:40.890Z,92.00
2018-08-07T04:29:18.112Z,92.10
2018-08-07T04:32:31.557Z,92.00
2018-08-07T04:34:08.256Z,92.00
2018-08-07T04:35:45.850Z,91.90
2018-08-07T04:37:22.314Z,92.00
2018-08-07T04:38:59.260Z,92.00
2018-08-07T04:40:35.589Z,91.90
2018-08-07T04:42:11.949Z,92.10
2018-08-07T04:43:48.338Z,92.10
2018-08-07T04:45:26.192Z,92.10
2018-08-07T04:47:02.467Z,92.20
2018-08-07T04:48:38.768Z,92.00
2018-08-07T04:50:15.135Z,92.10
2018-08-07T04:51:51.984Z,92.00
2018-08-07T04:53:28.415Z,92.00
2018-08-07T04:55:05.263Z,92.00
2018-08-07T04:56:43.970Z,92.10
2018-08-07T04:58:21.298Z,92.00
2018-08-07T05:00:05.074Z,92.20
2018-08-07T05:01:44.439Z,92.10
2018-08-07T05:03:22.520Z,91.90
2018-08-07T05:04:59.490Z,91.70
2018-08-07T05:06:35.890Z,91.60
2018-08-07T05:08:12.286Z,91.30
2018-08-07T05:09:49.124Z,91.00
2018-08-07T05:11:25.732Z,90.80
2018-08-07T05:13:03.837Z,90.60
2018-08-07T05:14:42.586Z,90.50
2018-08-07T05:17:56.749Z,90.40
2018-08-07T05:19:33.063Z,90.40
2018-08-07T05:21:09.512Z,90.40
2018-08-07T05:22:47.064Z,90.30
2018-08-07T05:24:24.728Z,90.50
2018-08-07T05:26:01.227Z,90.50
2018-08-07T05:27:37.925Z,90.30
2018-08-07T05:29:15.508Z,90.10
2018-08-07T05:30:52.285Z,90.40
2018-08-07T05:32:28.556Z,90.10
2018-08-07T05:34:04.906Z,90.00
2018-08-07T05:35:42.131Z,89.80
2018-08-07T05:37:18.748Z,89.00
2018-08-07T05:38:56.685Z,88.20
2018-08-07T05:40:32.987Z,87.90
2018-08-07T05:42:18.993Z,87.40
2018-08-07T05:44:05.201Z,86.90
2018-08-07T05:45:49.681Z,86.50
2018-08-07T05:47:29.446Z,86.40
2018-08-07T05:49:06.963Z,86.30
2018-08-07T05:50:45.019Z,85.40
2018-08-07T05:52:21.241Z,85.30
2018-08-07T05:53:58.113Z,84.70
2018-08-07T05:55:36.390Z,84.30
2018-08-07T05:57:14.376Z,83.60
2018-08-07T05:58:50.750Z,84.10
2018-08-07T06:00:27.235Z,82.50
2018-08-07T06:02:11.642Z,82.30
2018-08-07T06:03:50.296Z,81.50
2018-08-07T06:05:27.902Z,80.40
2018-08-07T06:07:04.730Z,79.10
2018-08-07T06:08:41.683Z,78.30
2018-08-07T06:10:19.301Z,76.80
2018-08-07T06:11:58.039Z,75.00
2018-08-07T06:13:37.586Z,74.30
2018-08-07T06:15:18.096Z,74.00
2018-08-07T06:16:54.426Z,74.00
2018-08-07T06:18:31.405Z,72.80
2018-08-07T06:20:16.927Z,72.90
2018-08-07T06:22:00.049Z,72.20
2018-08-07T06:23:42.833Z,72.70
2018-08-07T06:25:19.869Z,73.50
2018-08-07T06:26:56.265Z,75.70
2018-08-07T06:28:33.667Z,75.90
2018-08-07T06:30:20.588Z,76.90
2018-08-07T06:31:58.965Z,76.60
2018-08-07T06:33:38.794Z,76.90
2018-08-07T06:35:17.256Z,76.70
2018-08-07T06:36:53.914Z,76.80
2018-08-07T06:38:31.026Z,76.50
2018-08-07T06:40:11.842Z,76.60
2018-08-07T06:41:49.239Z,75.50
2018-08-07T06:43:27.510Z,75.30
2018-08-07T06:45:06.524Z,74.30
2018-08-07T06:46:43.162Z,74.60
2018-08-07T06:48:19.861Z,74.00
2018-08-07T06:50:01.495Z,73.40
2018-08-07T06:51:38.074Z,73.30
2018-08-07T06:53:14.382Z,72.20
2018-08-07T06:54:53.608Z,71.70
2018-08-07T06:56:29.859Z,70.30
2018-08-07T06:58:06.438Z,69.50
2018-08-07T06:59:42.709Z,67.80
2018-08-07T07:01:19.655Z,67.40
2018-08-07T07:02:59.041Z,67.50
2018-08-07T07:04:35.246Z,67.50
2018-08-07T07:06:11.579Z,66.40
2018-08-07T07:07:48.332Z,65.40
2018-08-07T07:09:25.706Z,65.00
2018-08-07T07:11:02.066Z,62.80
2018-08-07T07:12:39.680Z,63.10
2018-08-07T07:14:17.360Z,62.90
2018-08-07T07:15:54.053Z,64.30
2018-08-07T07:19:08.872Z,65.00
2018-08-07T07:20:51.631Z,64.00
2018-08-07T07:22:31.786Z,64.10
2018-08-07T07:24:10.375Z,64.20
2018-08-07T07:25:47.697Z,63.40
2018-08-07T07:27:24.403Z,61.90
2018-08-07T07:29:05.068Z,60.80
2018-08-07T07:30:46.518Z,59.30
2018-08-07T07:32:25.350Z,58.30
2018-08-07T07:34:02.665Z,58.10
2018-08-07T07:35:39.039Z,58.40
2018-08-07T07:37:19.004Z,59.20
2018-08-07T07:38:57.386Z,59.30
2018-08-07T07:40:34.848Z,57.70
2018-08-07T07:42:13.009Z,56.80
2018-08-07T07:43:49.627Z,56.20
2018-08-07T07:45:26.655Z,55.60
2018-08-07T07:47:03.449Z,56.30
2018-08-07T07:48:39.729Z,56.30
2018-08-07T07:50:21.922Z,55.70
2018-08-07T07:51:59.491Z,55.10
2018-08-07T07:53:41.606Z,56.00
2018-08-07T07:55:23.480Z,56.20
2018-08-07T07:57:00.511Z,55.60
2018-08-07T07:58:37.633Z,54.30
2018-08-07T08:00:30.329Z,53.70
2018-08-07T08:02:10.474Z,52.30
2018-08-07T08:03:48.532Z,53.30
2018-08-07T08:07:21.704Z,53.50
2018-08-07T08:09:06.933Z,54.40
2018-08-07T08:10:48.831Z,53.00
2018-08-07T08:12:27.650Z,52.70
2018-08-07T08:14:06.602Z,52.50
2018-08-07T08:15:44.810Z,51.30
2018-08-07T08:17:21.916Z,49.80
2018-08-07T08:19:00.104Z,48.90
2018-08-07T08:20:37.802Z,48.80
2018-08-07T08:22:16.077Z,49.10
2018-08-07T08:23:53.339Z,49.00
2018-08-07T08:25:32.647Z,49.30
2018-08-07T08:27:14.506Z,48.40
2018-08-07T08:28:52.514Z,48.10
2018-08-07T08:30:31.431Z,47.30
2018-08-07T08:32:08.570Z,47.90
2018-08-07T08:33:44.954Z,48.50
2018-08-07T08:35:24.699Z,49.10
2018-08-07T08:37:00.934Z,48.40
2018-08-07T08:38:40.567Z,47.40
2018-08-07T08:40:19.556Z,46.50
2018-08-07T08:41:56.782Z,45.80
2018-08-07T08:43:34.477Z,45.30
2018-08-07T08:45:18.422Z,45.30
2018-08-07T08:46:54.729Z,45.80
2018-08-07T08:48:32.105Z,46.30
2018-08-07T08:50:15.360Z,46.30
2018-08-07T08:51:55.777Z,46.30
2018-08-07T08:53:41.278Z,46.10
2018-08-07T08:55:23.528Z,45.60
2018-08-07T08:57:03.550Z,45.10
2018-08-07T08:58:39.948Z,44.80
2018-08-07T09:00:26.090Z,45.80
2018-08-07T09:02:06.175Z,46.30
2018-08-07T09:03:43.321Z,46.20
2018-08-07T09:05:21.639Z,45.70
2018-08-07T09:07:00.150Z,45.40
2018-08-07T09:08:39.077Z,45.30
2018-08-07T09:10:27.712Z,45.10
2018-08-07T09:12:04.823Z,45.10
2018-08-07T09:13:42.001Z,45.00
2018-08-07T09:15:19.959Z,44.80
2018-08-07T09:16:57.015Z,44.40
2018-08-07T09:18:34.886Z,44.30
2018-08-07T09:20:30.050Z,44.50
2018-08-07T09:22:14.456Z,44.60
2018-08-07T09:23:51.786Z,44.10
2018-08-07T09:25:29.597Z,44.10
2018-08-07T09:27:06.923Z,44.70
2018-08-07T09:28:45.275Z,44.90
2018-08-07T09:30:26.483Z,44.90
2018-08-07T09:32:08.475Z,45.00
2018-08-07T09:33:44.885Z,44.20
2018-08-07T09:35:22.666Z,44.30
2018-08-07T09:37:00.782Z,46.40
2018-08-07T09:38:37.050Z,46.00
2018-08-07T09:40:16.302Z,45.30
2018-08-07T09:41:54.506Z,44.10
2018-08-07T09:43:30.886Z,43.80
2018-08-07T09:45:11.494Z,44.00
2018-08-07T09:46:50.505Z,44.00
2018-08-07T09:48:28.113Z,43.90
2018-08-07T09:50:05.919Z,43.30
2018-08-07T09:51:42.258Z,43.30
2018-08-07T09:53:18.621Z,43.40
2018-08-07T09:54:56.863Z,42.40
2018-08-07T09:56:33.159Z,42.00
2018-08-07T09:58:10.714Z,41.00
2018-08-07T09:59:50.643Z,41.60
2018-08-07T10:01:37.939Z,41.90
2018-08-07T10:03:18.742Z,41.10
2018-08-07T10:04:55.095Z,41.50
2018-08-07T10:06:34.669Z,42.20
2018-08-07T10:08:12.993Z,41.20
2018-08-07T10:09:50.532Z,41.10
2018-08-07T10:11:33.089Z,40.90
2018-08-07T10:13:18.117Z,40.80
2018-08-07T10:16:48.812Z,40.40
2018-08-07T10:18:26.944Z,40.60
2018-08-07T10:20:04.699Z,40.10
2018-08-07T10:21:42.414Z,39.60
2018-08-07T10:23:20.433Z,40.10
2018-08-07T10:24:58.649Z,39.90
2018-08-07T10:26:35.186Z,39.50
2018-08-07T10:28:14.639Z,38.30
2018-08-07T10:29:51.528Z,38.60
2018-08-07T10:31:47.684Z,38.50
2018-08-07T10:33:26.041Z,38.60
2018-08-07T10:35:02.870Z,37.90
2018-08-07T10:36:39.556Z,37.40
2018-08-07T10:38:15.950Z,37.60
2018-08-07T10:39:53.507Z,37.10
2018-08-07T10:41:30.728Z,37.10
2018-08-07T10:43:09.696Z,37.80
2018-08-07T10:44:46.427Z,37.90
2018-08-07T10:46:25.345Z,37.40
2018-08-07T10:48:02.398Z,37.20
2018-08-07T10:49:39.843Z,38.20
2018-08-07T10:51:19.067Z,38.70
2018-08-07T10:52:59.674Z,39.30
2018-08-07T10:54:38.859Z,38.80
2018-08-07T10:56:16.070Z,38.70
2018-08-07T10:57:59.202Z,39.60
2018-08-07T10:59:36.120Z,39.40
2018-08-07T11:01:14.418Z,38.20
2018-08-07T11:02:52.461Z,37.70
2018-08-07T11:04:29.198Z,38.00
2018-08-07T11:06:06.352Z,37.60
2018-08-07T11:07:43.704Z,38.80
2018-08-07T11:09:20.922Z,40.00
2018-08-07T11:10:58.465Z,39.90
2018-08-07T11:12:41.241Z,39.70
2018-08-07T11:14:26.882Z,39.60
2018-08-07T11:16:18.458Z,40.00
2018-08-07T11:18:14.492Z,40.00
2018-08-07T11:19:54.330Z,39.10
2018-08-07T11:21:31.910Z,38.50
2018-08-07T11:23:09.734Z,38.00
2018-08-07T11:24:52.077Z,37.50
2018-08-07T11:26:29.538Z,36.70
2018-08-07T11:28:08.820Z,36.80
2018-08-07T11:29:46.554Z,36.20
2018-08-07T11:31:23.654Z,35.70
2018-08-07T11:33:04.234Z,35.50
2018-08-07T11:34:40.701Z,35.90
2018-08-07T11:36:19.112Z,35.70
2018-08-07T11:37:59.266Z,36.10
2018-08-07T11:39:36.705Z,36.00
2018-08-07T11:41:16.919Z,35.80
2018-08-07T11:42:54.118Z,35.50
2018-08-07T11:44:31.130Z,35.40
2018-08-07T11:47:46.720Z,35.90
2018-08-07T11:49:23.467Z,35.60
2018-08-07T11:51:14.980Z,36.10
2018-08-07T11:53:00.904Z,36.10
2018-08-07T11:54:47.610Z,35.80
2018-08-07T11:56:26.965Z,34.70
2018-08-07T11:58:05.594Z,34.30
2018-08-07T11:59:45.101Z,34.60
2018-08-07T12:01:22.852Z,34.80
2018-08-07T12:03:00.105Z,34.70
2018-08-07T12:04:37.412Z,35.60
2018-08-07T12:06:15.673Z,36.30
2018-08-07T12:07:52.709Z,36.80
2018-08-07T12:09:29.054Z,37.00
2018-08-07T12:11:07.989Z,37.50
2018-08-07T12:12:46.614Z,37.10
2018-08-07T12:14:29.469Z,36.80
2018-08-07T12:16:08.188Z,35.40
2018-08-07T12:17:46.236Z,34.20
2018-08-07T12:19:24.106Z,34.00
2018-08-07T12:21:05.368Z,34.20
2018-08-07T12:22:44.954Z,34.60
2018-08-07T12:24:22.304Z,34.50
2018-08-07T12:26:05.568Z,35.50
2018-08-07T12:27:43.135Z,36.00
2018-08-07T12:29:20.996Z,35.90
2018-08-07T12:30:59.473Z,35.70
2018-08-07T12:32:38.186Z,35.30
2018-08-07T12:34:15.380Z,35.10
2018-08-07T12:35:53.910Z,35.40
2018-08-07T12:37:33.207Z,34.80
2018-08-07T12:39:10.866Z,34.70
2018-08-07T12:42:56.117Z,34.40
2018-08-07T12:44:34.105Z,32.90
2018-08-07T12:46:10.513Z,32.70
2018-08-07T12:47:47.289Z,33.90
2018-08-07T12:49:23.560Z,34.20
2018-08-07T12:50:59.197Z,34.70
2018-08-07T12:52:37.981Z,34.60
2018-08-07T12:54:13.256Z,34.80
2018-08-07T12:55:50.121Z,34.10
2018-08-07T12:57:26.705Z,34.10
2018-08-07T12:59:04.645Z,34.20
2018-08-07T13:00:40.344Z,34.50
2018-08-07T13:02:20.331Z,34.10
2018-08-07T13:04:03.756Z,34.30
2018-08-07T13:05:39.202Z,34.50
2018-08-07T13:07:16.042Z,34.60
2018-08-07T13:08:52.840Z,34.20
2018-08-07T13:10:28.755Z,34.00
2018-08-07T13:12:05.241Z,34.20
2018-08-07T13:13:41.586Z,33.60
2018-08-07T13:15:21.762Z,33.80
2018-08-07T13:17:00.619Z,33.60
2018-08-07T13:18:37.481Z,34.20
2018-08-07T13:20:25.911Z,34.00
2018-08-07T13:22:02.697Z,34.30
2018-08-07T13:23:44.787Z,33.10
2018-08-07T13:27:04.265Z,32.80
2018-08-07T13:28:40.322Z,33.00
2018-08-07T13:30:26.807Z,32.10
2018-08-07T13:32:03.314Z,32.00
2018-08-07T13:33:38.596Z,31.10
2018-08-07T13:35:14.112Z,31.30
2018-08-07T13:36:53.116Z,30.40
2018-08-07T13:38:29.467Z,29.80
2018-08-07T13:40:16.511Z,30.20
2018-08-07T13:41:57.089Z,31.00
2018-08-07T13:43:34.009Z,31.60
2018-08-07T13:47:02.897Z,31.00
2018-08-07T13:48:40.190Z,30.30
2018-08-07T13:50:23.825Z,30.80
2018-08-07T13:51:59.175Z,30.70
2018-08-07T13:53:34.424Z,30.30
2018-08-07T18:24:17.648Z,29.70
2018-08-07T18:25:53.276Z,29.60
2018-08-07T18:27:30.432Z,29.70
2018-08-07T18:29:08.450Z,29.70
2018-08-07T18:30:48.279Z,29.70
2018-08-07T18:32:26.558Z,29.70
2018-08-07T18:34:02.567Z,29.70
2018-08-07T18:35:41.189Z,29.80
2018-08-07T18:37:19.509Z,29.80
2018-08-07T18:38:54.832Z,29.80
2018-08-07T18:40:32.348Z,29.80
2018-08-07T18:42:10.165Z,29.80
2018-08-07T18:43:45.627Z,29.80
2018-08-07T18:45:22.133Z,29.90
2018-08-07T18:46:57.744Z,29.80
2018-08-07T18:48:33.820Z,29.90
2018-08-07T18:50:14.091Z,29.90
2018-08-07T18:51:50.231Z,30.00
2018-08-07T18:53:26.431Z,29.90
2018-08-07T18:55:02.402Z,30.20
2018-08-07T18:56:42.610Z,29.90
2018-08-07T18:58:21.264Z,30.00
2018-08-07T18:59:57.994Z,30.00
2018-08-07T19:01:45.131Z,30.00
2018-08-07T19:03:21.814Z,29.90
2018-08-07T19:04:57.509Z,30.00
2018-08-07T19:06:33.915Z,29.90
2018-08-07T19:08:14.732Z,30.00
2018-08-07T19:11:46.824Z,30.10
2018-08-07T19:13:28.670Z,30.00
2018-08-07T19:15:08.684Z,30.10
2018-08-07T19:16:50.083Z,31.10
2018-08-07T19:18:25.653Z,30.80
2018-08-07T19:20:03.207Z,33.30
2018-08-07T19:21:39.115Z,33.30
2018-08-07T19:23:15.026Z,31.40
2018-08-07T19:24:50.821Z,33.10
2018-08-07T19:26:26.228Z,31.80
2018-08-07T19:28:02.285Z,32.50
2018-08-07T19:29:39.331Z,33.70
2018-08-07T19:31:15.831Z,34.00
2018-08-07T19:32:53.853Z,34.80
2018-08-07T19:34:48.526Z,33.30
2018-08-07T19:38:38.738Z,34.70
2018-08-07T19:40:19.909Z,34.00
2018-08-07T19:42:03.450Z,33.80
2018-08-07T19:43:42.742Z,34.10
2018-08-07T19:45:18.898Z,34.40
2018-08-07T19:46:54.839Z,34.60
2018-08-07T19:48:34.713Z,35.70
2018-08-07T19:50:14.446Z,34.90
2018-08-07T19:51:52.659Z,35.00
2018-08-07T19:53:29.527Z,36.40
2018-08-07T19:55:06.619Z,36.40
2018-08-07T19:56:42.384Z,35.70
2018-08-07T19:58:17.868Z,37.00
2018-08-07T19:59:55.584Z,36.70
2018-08-07T20:01:34.496Z,37.20
2018-08-07T20:03:11.554Z,37.20
2018-08-07T20:04:49.770Z,37.30
2018-08-07T20:06:28.533Z,37.40
2018-08-07T20:08:05.234Z,37.30
2018-08-07T20:09:45.482Z,38.00
2018-08-07T20:11:31.221Z,36.50
2018-08-07T20:13:14.299Z,36.20
2018-08-07T20:14:53.171Z,37.10
2018-08-07T20:16:30.259Z,37.20
2018-08-07T20:18:10.295Z,37.70
2018-08-07T20:19:46.661Z,38.20
2018-08-07T20:21:24.344Z,38.50
2018-08-07T20:23:05.151Z,39.00
2018-08-07T20:24:41.309Z,39.30
2018-08-07T20:26:19.778Z,39.80
2018-08-07T20:28:05.440Z,40.70
2018-08-07T20:29:50.876Z,40.20
2018-08-07T20:31:46.627Z,40.10
2018-08-07T20:33:23.853Z,40.20
2018-08-07T20:35:00.166Z,39.80
2018-08-07T20:36:36.887Z,39.30
2018-08-07T20:38:14.585Z,39.10
2018-08-07T20:39:51.016Z,39.10
2018-08-07T20:41:26.531Z,39.40
2018-08-07T20:43:06.626Z,39.40
2018-08-07T20:44:46.494Z,39.30
2018-08-07T20:46:23.271Z,39.30
2018-08-07T20:48:07.353Z,39.40
2018-08-07T20:49:45.674Z,39.60
2018-08-07T20:51:24.136Z,40.30
2018-08-07T20:53:00.836Z,41.00
2018-08-07T20:54:38.123Z,41.30
2018-08-07T20:56:14.370Z,41.60
2018-08-07T20:57:54.851Z,42.00
2018-08-07T20:59:35.043Z,42.20
2018-08-07T21:01:14.874Z,42.20
2018-08-07T21:02:50.732Z,42.00
2018-08-07T21:04:27.212Z,42.10
2018-08-07T21:06:05.525Z,42.40
2018-08-07T21:07:45.063Z,42.60
2018-08-07T21:09:22.781Z,43.20
2018-08-07T21:10:59.244Z,43.10
2018-08-07T21:12:34.913Z,43.30
2018-08-07T21:14:13.613Z,43.20
2018-08-07T21:15:53.605Z,43.10
2018-08-07T21:17:32.594Z,43.20
2018-08-07T21:19:09.948Z,43.40
2018-08-07T21:20:45.857Z,43.40
2018-08-07T21:22:21.767Z,43.40
2018-08-07T21:23:59.390Z,43.40
2018-08-07T21:25:35.577Z,42.70
2018-08-07T21:27:13.005Z,42.10
2018-08-07T21:28:48.355Z,42.00
2018-08-07T21:30:27.566Z,41.90
2018-08-07T21:32:07.383Z,42.20
2018-08-07T21:33:45.590Z,42.10
2018-08-07T21:35:21.112Z,41.70
2018-08-07T21:36:56.644Z,41.70
2018-08-07T21:38:58.063Z,42.50
2018-08-07T21:40:42.759Z,42.70
2018-08-07T21:42:31.369Z,43.40
2018-08-07T21:44:10.644Z,44.10
2018-08-07T21:45:48.833Z,44.80
2018-08-07T21:47:29.108Z,45.30
2018-08-07T21:49:05.079Z,45.90
2018-08-07T21:50:40.466Z,46.10
2018-08-07T21:52:15.858Z,46.50
2018-08-07T21:53:51.332Z,46.30
2018-08-07T21:55:28.842Z,46.10
2018-08-07T21:57:04.639Z,45.50
2018-08-07T21:58:40.746Z,45.00
2018-08-07T22:00:32.670Z,44.40
2018-08-07T22:02:09.058Z,44.70
2018-08-07T22:03:48.581Z,44.80
2018-08-07T22:05:24.801Z,44.70
2018-08-07T22:07:02.548Z,44.50
2018-08-07T22:08:38.683Z,44.30
2018-08-07T22:10:21.503Z,44.20
2018-08-07T22:12:00.352Z,44.50
2018-08-07T22:13:38.643Z,44.40
2018-08-07T22:15:21.444Z,44.10
2018-08-07T22:16:57.766Z,44.10
2018-08-07T22:18:35.206Z,44.10
2018-08-07T22:20:11.793Z,44.20
2018-08-07T22:21:50.951Z,43.90
2018-08-07T22:23:26.375Z,43.80
2018-08-07T22:25:02.807Z,43.90
2018-08-07T22:26:41.361Z,43.90
2018-08-07T22:28:19.880Z,43.70
2018-08-07T22:29:57.580Z,44.30
2018-08-07T22:31:34.929Z,44.20
2018-08-07T22:33:10.297Z,43.80
2018-08-07T22:34:45.658Z,43.10
2018-08-07T22:36:21.671Z,42.60
2018-08-07T22:37:57.205Z,42.70
2018-08-07T22:39:33.938Z,42.40
2018-08-07T22:41:10.850Z,42.50
2018-08-07T22:42:46.569Z,42.70
2018-08-07T22:44:24.499Z,42.80
2018-08-07T22:46:01.316Z,43.00
2018-08-07T22:47:39.056Z,43.20
2018-08-07T22:49:16.204Z,43.30
2018-08-07T22:50:51.556Z,43.30
2018-08-07T22:52:32.019Z,43.70
2018-08-07T22:54:11.445Z,44.00
2018-08-07T22:55:47.318Z,45.00
2018-08-07T22:57:23.518Z,46.10
2018-08-07T22:58:59.505Z,47.30
2018-08-07T23:00:35.722Z,48.10
2018-08-07T23:02:11.190Z,48.90
2018-08-07T23:03:47.052Z,49.60
2018-08-07T23:05:24.475Z,50.20
2018-08-07T23:06:59.942Z,50.30
2018-08-07T23:08:35.328Z,50.60
2018-08-07T23:10:17.813Z,50.90
2018-08-07T23:11:53.258Z,50.90
2018-08-07T23:13:29.982Z,51.10
2018-08-07T23:15:11.402Z,51.70
2018-08-07T23:16:46.982Z,52.20
2018-08-07T23:18:22.781Z,52.50
2018-08-07T23:20:01.391Z,52.80
2018-08-07T23:21:37.370Z,53.30
2018-08-07T23:23:13.090Z,53.70
2018-08-07T23:24:49.855Z,53.70
2018-08-07T23:26:27.046Z,54.20
2018-08-07T23:28:03.734Z,54.40
2018-08-07T23:29:40.090Z,54.70
2018-08-07T23:31:18.300Z,54.80
2018-08-07T23:32:53.928Z,55.40
2018-08-07T23:34:29.520Z,56.70
2018-08-07T23:36:07.763Z,57.30
2018-08-07T23:37:44.141Z,58.60
2018-08-07T23:39:25.058Z,59.80
2018-08-07T23:41:01.518Z,60.20
2018-08-07T23:42:38.232Z,62.20
2018-08-07T23:44:13.624Z,63.20
2018-08-07T23:45:49.293Z,65.00
2018-08-07T23:47:25.561Z,66.10
2018-08-07T23:49:01.077Z,68.20
2018-08-07T23:50:36.670Z,70.10
2018-08-07T23:52:13.233Z,72.40
2018-08-07T23:53:49.113Z,73.80
2018-08-07T23:55:24.690Z,75.70
2018-08-07T23:57:01.263Z,77.80
2018-08-07T23:58:38.795Z,78.20
